Time;durP1;ratioP1;P1;durP2;ratioP2;P2;SDS_P1;SDS_P2;PMS_P1;PMS_P2;Temp;Humidity;BMP_temperature;BMP_pressure;BME280_temperature;BME280_humidity;BME280_pressure;Samples;Min_cycle;Max_cycle;Signal;HPM_P1;HPM_P2
2022/09/20 00:01:16;;;;;;;7.12;4.62;;;;;;;8.34;81.31;96883.77;1669799;85;25806;-86
2022/09/20 00:03:45;;;;;;;6.42;4.92;;;;;;;8.36;81.26;96887.59;1627384;87;28189;-86
2022/09/20 00:06:16;;;;;;;6.62;4.80;;;;;;;8.38;81.32;96889.05;1669402;85;25876;-86
2022/09/20 00:08:43;;;;;;;6.17;4.50;;;;;;;8.38;81.32;96885.02;1669674;85;25793;-87
2022/09/20 00:11:17;;;;;;;7.90;4.80;;;;;;;8.42;81.36;96887.60;1669889;85;25994;-86
2022/09/20 00:13:46;;;;;;;6.72;5.03;;;;;;;8.48;81.41;96893.98;1670030;85;25801;-86
2022/09/20 00:16:23;;;;;;;6.45;4.65;;;;;;;8.50;81.39;96890.58;1627906;87;27444;-86
2022/09/20 00:18:53;;;;;;;7.08;5.17;;;;;;;8.53;81.38;96891.50;1667866;85;25831;-85
2022/09/20 00:21:24;;;;;;;7.22;4.50;;;;;;;8.50;81.41;96889.23;1628642;87;25750;-85
2022/09/20 00:23:56;;;;;;;6.03;4.58;;;;;;;8.50;81.46;96897.30;1627546;87;26778;-85
2022/09/20 00:26:24;;;;;;;8.10;4.72;;;;;;;8.49;81.54;96892.95;1675556;85;25790;-86
2022/09/20 00:28:50;;;;;;;5.92;4.40;;;;;;;8.48;81.64;96885.41;1625646;87;27346;-85
2022/09/20 00:31:18;;;;;;;5.72;4.25;;;;;;;8.45;81.62;96897.13;1628108;87;25821;-85
2022/09/20 00:36:30;;;;;;;6.95;3.80;;;;;;;8.46;81.69;96896.05;1627465;87;26033;-87
2022/09/20 00:38:59;;;;;;;5.85;4.08;;;;;;;8.48;81.84;96889.95;1628755;87;25265;-85
2022/09/20 00:41:26;;;;;;;5.15;4.05;;;;;;;8.50;81.82;96892.75;1628840;87;27408;-86
2022/09/20 00:43:54;;;;;;;5.55;3.90;;;;;;;8.53;81.85;96896.88;1627541;87;25288;-85
2022/09/20 00:46:42;;;;;;;5.62;4.10;;;;;;;8.57;81.85;96901.61;1623887;87;25762;-83
2022/09/20 00:49:23;;;;;;;6.75;3.62;;;;;;;8.61;81.82;96900.16;1647256;85;26652;-86
2022/09/20 00:51:57;;;;;;;4.50;3.90;;;;;;;8.64;81.80;96905.65;1709488;83;25759;-86
2022/09/20 00:54:26;;;;;;;4.47;3.75;;;;;;;8.63;81.77;96899.95;1709312;83;27446;-85
2022/09/20 00:56:53;;;;;;;5.47;4.12;;;;;;;8.65;81.82;96895.20;1709096;83;26072;-83
2022/09/20 00:59:27;;;;;;;4.10;3.70;;;;;;;8.67;81.88;96898.51;1709169;83;25745;-83
2022/09/20 01:01:58;;;;;;;5.37;3.95;;;;;;;8.69;81.88;96895.09;1674370;85;26056;-85
2022/09/20 01:04:27;;;;;;;5.40;4.08;;;;;;;8.70;81.86;96891.34;1708481;83;25750;-84
2022/09/20 01:06:58;;;;;;;9.15;4.15;;;;;;;8.69;81.98;96893.75;1674492;85;27419;-86
2022/09/20 01:09:25;;;;;;;4.85;3.98;;;;;;;8.65;81.97;96888.47;1709206;83;25677;-84
2022/09/20 01:11:54;;;;;;;5.87;4.08;;;;;;;8.68;82.03;96891.27;1674616;85;25746;-83
2022/09/20 01:14:23;;;;;;;4.62;4.22;;;;;;;8.69;82.06;96887.02;1709590;83;26001;-84
2022/09/20 01:16:54;;;;;;;6.85;4.17;;;;;;;8.71;82.10;96888.95;1674444;85;25755;-87
2022/09/20 01:19:29;;;;;;;4.47;4.08;;;;;;;8.74;82.09;96891.75;1709031;83;27364;-86
2022/09/20 01:21:56;;;;;;;4.92;4.40;;;;;;;8.75;82.11;96889.36;1708773;83;25970;-87
2022/09/20 01:24:36;;;;;;;5.20;4.65;;;;;;;8.73;82.18;96892.27;1674522;85;25788;-84
2022/09/20 01:27:34;;;;;;;5.90;4.78;;;;;;;8.71;82.24;96890.81;1709299;83;26159;-86
2022/09/20 01:30:11;;;;;;;6.20;5.10;;;;;;;8.73;82.37;96893.61;1699648;83;25742;-84
2022/09/20 01:33:01;;;;;;;6.53;5.15;;;;;;;8.73;82.49;96890.09;1674070;85;28478;-84
2022/09/20 01:35:28;;;;;;;8.60;6.33;;;;;;;8.73;82.51;96893.61;1665621;85;25771;-86
2022/09/20 01:38:22;;;;;;;7.33;5.55;;;;;;;8.75;82.52;96891.53;1709501;83;25852;-86
2022/09/20 01:41:02;;;;;;;7.75;6.60;;;;;;;8.78;82.59;96895.16;1709476;83;26871;-84
2022/09/20 01:43:49;;;;;;;9.03;6.60;;;;;;;8.80;82.69;96890.39;1709578;83;25788;-85
2022/09/20 01:46:35;;;;;;;8.53;7.08;;;;;;;8.81;82.63;96886.67;1709138;83;27318;-84
2022/09/20 01:49:22;;;;;;;8.88;6.50;;;;;;;8.80;82.65;96887.70;1707765;83;25753;-85
2022/09/20 01:52:35;;;;;;;7.90;7.03;;;;;;;8.77;82.75;96882.73;1668411;85;25273;-84
2022/09/20 01:55:20;;;;;;;;;;;;;;;8.78;82.86;96883.05;1677322;85;26045;-85
2022/09/20 01:58:28;;;;;;;10.45;8.30;;;;;;;8.79;83.06;96883.36;1703887;84;25768;-86
2022/09/20 02:01:15;;;;;;;11.28;7.90;;;;;;;8.79;83.02;96885.22;1679688;83;27390;-84
2022/09/20 02:03:47;;;;;;;10.10;8.40;;;;;;;8.79;83.06;96890.09;1669972;85;25931;-84
2022/09/20 02:06:28;;;;;;;10.82;8.80;;;;;;;8.79;83.07;96896.81;1704763;84;25815;-83
2022/09/20 02:09:26;;;;;;;12.18;9.30;;;;;;;8.82;83.12;96884.77;1704425;84;26166;-85
2022/09/20 02:12:32;;;;;;;11.57;8.50;;;;;;;8.85;83.16;96893.25;1704617;84;25951;-85
2022/09/20 02:15:35;;;;;;;11.48;9.25;;;;;;;8.88;83.18;96892.84;1669625;85;28190;-84
2022/09/20 02:18:16;;;;;;;12.73;9.83;;;;;;;8.84;83.24;96887.56;1641410;87;25781;-83
2022/09/20 02:21:00;;;;;;;12.88;9.38;;;;;;;8.84;83.30;96886.22;1703548;84;25661;-83
2022/09/20 02:23:51;;;;;;;12.30;9.60;;;;;;;8.82;83.28;96899.05;1704686;84;26167;-83
2022/09/20 02:26:32;;;;;;;11.18;9.10;;;;;;;8.86;83.33;96907.02;1704628;84;26274;-83
2022/09/20 02:29:23;;;;;;;13.50;10.05;;;;;;;8.88;83.44;96906.30;1704201;83;27385;-81
2022/09/20 02:32:32;;;;;;;12.15;9.98;;;;;;;8.88;83.48;96905.47;1704573;84;25776;-82
2022/09/20 02:35:19;;;;;;;14.63;10.90;;;;;;;8.82;83.59;96903.09;1670001;85;26351;-83
2022/09/20 02:38:25;;;;;;;13.43;10.32;;;;;;;8.85;83.65;96906.71;1704135;83;26104;-84
2022/09/20 02:41:25;;;;;;;13.10;10.25;;;;;;;8.85;83.62;96900.50;1704357;83;25732;-84
2022/09/20 02:44:26;;;;;;;12.63;10.28;;;;;;;8.89;83.64;96905.27;1669980;85;28318;-85
2022/09/20 02:47:13;;;;;;;10.95;9.73;;;;;;;8.90;83.66;96910.95;1704377;84;25792;-85
2022/09/20 02:50:22;;;;;;;12.60;10.28;;;;;;;8.91;83.68;96909.92;1691897;82;25762;-85
2022/09/20 02:53:09;;;;;;;12.25;10.08;;;;;;;8.93;83.67;96913.23;1672483;85;26032;-85
2022/09/20 02:56:14;;;;;;;11.95;10.40;;;;;;;8.95;83.78;96914.33;1672317;85;25715;-85
2022/09/20 02:59:09;;;;;;;13.85;10.32;;;;;;;8.91;83.76;96912.61;1666239;85;27435;-85
2022/09/20 03:01:49;;;;;;;12.73;9.85;;;;;;;8.93;83.82;96909.19;1672328;85;25276;-85
2022/09/20 03:04:59;;;;;;;12.85;10.53;;;;;;;8.94;83.84;96911.33;1672273;85;25794;-86
2022/09/20 03:08:03;;;;;;;14.15;11.40;;;;;;;8.97;83.89;96912.26;1672655;85;25975;-86
2022/09/20 03:10:57;;;;;;;11.33;10.20;;;;;;;8.97;83.91;96917.64;1653342;85;25757;-86
2022/09/20 03:13:44;;;;;;;12.43;10.72;;;;;;;9.00;83.99;96920.74;1671552;85;27590;-87
2022/09/20 03:16:34;;;;;;;13.90;11.48;;;;;;;9.01;84.03;96924.27;1672090;85;25807;-86
2022/09/20 03:19:38;;;;;;;14.98;11.57;;;;;;;9.03;84.03;96923.02;1672940;85;25728;-85
2022/09/20 03:22:32;;;;;;;13.15;11.12;;;;;;;9.06;83.98;96926.33;1671956;85;26762;-86
2022/09/20 03:25:36;;;;;;;12.90;11.30;;;;;;;9.03;84.07;96921.67;1672692;85;26198;-82
2022/09/20 03:28:20;;;;;;;12.60;11.18;;;;;;;9.04;84.17;96926.54;1672677;85;27387;-86
2022/09/20 03:31:07;;;;;;;13.75;11.85;;;;;;;9.03;84.20;96927.05;1649369;85;25892;-86
2022/09/20 03:33:50;;;;;;;14.28;12.50;;;;;;;9.04;84.16;96926.54;1671910;85;26553;-86
2022/09/20 03:36:49;;;;;;;13.95;12.13;;;;;;;9.09;84.17;96929.92;1672303;85;26053;-85
2022/09/20 03:39:45;;;;;;;14.78;13.28;;;;;;;9.10;84.08;96934.27;1672407;85;26524;-87
2022/09/20 03:42:19;;;;;;;13.98;12.50;;;;;;;9.13;84.09;96931.98;1672067;85;27381;-86
2022/09/20 03:45:14;;;;;;;14.20;12.00;;;;;;;9.16;84.09;96942.85;1671469;85;25747;-87
2022/09/20 03:48:06;;;;;;;15.55;13.08;;;;;;;9.18;84.07;96934.02;1672076;85;25884;-87
2022/09/20 03:50:59;;;;;;;15.90;13.48;;;;;;;9.20;84.07;96944.06;1671498;84;27007;-86
2022/09/20 03:54:09;;;;;;;14.45;12.95;;;;;;;9.21;83.96;96944.36;1672226;85;25778;-87
2022/09/20 03:57:22;;;;;;;14.40;12.93;;;;;;;9.21;83.89;96952.44;1672287;85;28268;-86
2022/09/20 04:00:14;;;;;;;15.40;12.98;;;;;;;9.19;83.95;96945.09;1672254;85;25275;-87
2022/09/20 04:03:04;;;;;;;14.30;12.55;;;;;;;9.18;84.05;96946.13;1672761;85;25763;-86
2022/09/20 04:06:23;;;;;;;15.30;13.08;;;;;;;9.18;84.12;96946.13;1672430;85;25983;-87
2022/09/20 04:09:39;;;;;;;13.88;11.88;;;;;;;9.22;84.10;96947.37;1672539;85;25864;-86
2022/09/20 04:12:45;;;;;;;16.30;12.95;;;;;;;9.23;84.04;96952.55;1672244;85;28416;-88
2022/09/20 04:15:31;;;;;;;14.53;12.63;;;;;;;9.25;83.97;96950.98;1672312;85;25893;-88
2022/09/20 04:18:38;;;;;;;15.25;12.70;;;;;;;9.28;83.94;96962.17;1672856;85;25766;-84
2022/09/20 04:21:22;;;;;;;15.13;12.93;;;;;;;9.27;83.81;96958.34;1647346;86;25984;-87
2022/09/20 04:24:06;;;;;;;15.38;12.47;;;;;;;9.24;83.78;96960.10;1646548;86;25772;-87
2022/09/20 04:26:38;;;;;;;14.60;12.47;;;;;;;9.21;83.86;96964.56;1642416;86;27385;-87
2022/09/20 04:29:27;;;;;;;16.45;13.60;;;;;;;9.19;83.88;96969.33;1672401;85;25667;-82
2022/09/20 04:32:14;;;;;;;15.30;13.70;;;;;;;9.16;84.00;96969.78;1672136;85;25880;-89
2022/09/20 04:37:39;;;;;;;19.67;13.22;;;;;;;9.19;84.07;96975.55;1672099;85;25814;-87
2022/09/20 04:40:43;;;;;;;19.12;13.58;;;;;;;9.18;84.07;96978.45;1672413;85;27443;-87
2022/09/20 04:43:28;;;;;;;17.90;13.22;;;;;;;9.16;84.01;96983.24;1671866;85;26153;-85
2022/09/20 04:46:29;;;;;;;15.32;12.82;;;;;;;9.15;84.07;96972.16;1672378;85;25837;-86
2022/09/20 04:49:21;;;;;;;16.30;13.38;;;;;;;9.17;84.08;96979.52;1648538;86;26009;-86
2022/09/20 04:52:37;;;;;;;17.15;13.05;;;;;;;9.14;84.06;96978.06;1697962;83;26524;-85
2022/09/20 04:55:40;;;;;;;14.60;13.03;;;;;;;9.14;84.01;96978.59;1703770;83;28224;-86
2022/09/20 04:58:47;;;;;;;17.50;13.95;;;;;;;9.15;84.03;96985.11;1690828;84;25751;-88
2022/09/20 05:01:21;;;;;;;20.05;14.83;;;;;;;9.19;83.96;96984.14;1670356;85;25730;-86
2022/09/20 05:04:08;;;;;;;16.02;13.90;;;;;;;9.19;83.93;96988.18;1669453;85;26772;-86
2022/09/20 05:07:06;;;;;;;16.10;14.30;;;;;;;9.21;83.90;96984.24;1670169;85;25686;-87
2022/09/20 05:09:50;;;;;;;16.70;14.65;;;;;;;9.22;83.78;96987.77;1650688;86;27494;-88
2022/09/20 05:13:04;;;;;;;16.27;14.53;;;;;;;9.23;83.75;96992.94;1703490;83;25708;-84
2022/09/20 05:15:51;;;;;;;16.67;14.87;;;;;;;9.20;83.70;96988.48;1704459;84;34788;-87
2022/09/20 05:18:51;;;;;;;18.73;15.65;;;;;;;9.22;83.76;96997.19;1669223;85;26857;-87
2022/09/20 05:21:29;;;;;;;17.42;15.38;;;;;;;9.25;83.75;97000.81;1651220;86;25739;-86
2022/09/20 05:24:35;;;;;;;18.27;16.12;;;;;;;9.25;83.73;97002.16;1644230;86;28195;-87
2022/09/20 05:27:42;;;;;;;16.97;15.15;;;;;;;9.24;83.78;97001.84;1606864;86;25940;-88
2022/09/20 05:30:36;;;;;;;15.93;14.28;;;;;;;9.25;83.71;97005.67;1648465;87;25734;-88
2022/09/20 05:33:49;;;;;;;17.12;15.18;;;;;;;9.29;83.70;97010.12;1648277;86;26098;-86
2022/09/20 05:36:51;;;;;;;19.82;14.98;;;;;;;9.30;83.58;97005.85;1648366;86;25798;-87
2022/09/20 05:39:29;;;;;;;17.75;15.18;;;;;;;9.32;83.63;97009.68;1648522;87;27454;-87
2022/09/20 05:42:28;;;;;;;18.80;14.78;;;;;;;9.32;83.66;97010.51;1648157;86;25798;-87
2022/09/20 05:45:12;;;;;;;18.12;14.90;;;;;;;9.33;83.66;97009.99;1648106;87;25764;-87
2022/09/20 05:47:53;;;;;;;16.80;14.75;;;;;;;9.30;83.70;97010.41;1648242;87;26010;-86
2022/09/20 05:50:53;;;;;;;16.35;14.65;;;;;;;9.32;83.75;97014.55;1646346;85;25681;-85
2022/09/20 05:53:52;;;;;;;15.98;14.28;;;;;;;9.34;83.70;97019.73;1632070;87;27414;-87
2022/09/20 05:57:05;;;;;;;16.77;14.33;;;;;;;9.33;83.75;97022.11;1629412;87;25755;-87
2022/09/20 05:59:48;;;;;;;18.05;15.20;;;;;;;9.35;83.76;97022.73;1670181;85;25263;-87
2022/09/20 06:02:52;;;;;;;17.23;14.20;;;;;;;9.40;83.71;97022.94;1669140;85;26016;-87
2022/09/20 06:05:44;;;;;;;19.73;15.10;;;;;;;9.45;83.60;97027.14;1669965;85;25873;-88
2022/09/20 06:08:17;;;;;;;;;;;;;;;9.49;83.55;97026.20;1672726;85;27366;-88
2022/09/20 06:11:01;;;;;;;20.55;15.15;;;;;;;9.51;83.46;97027.66;1670219;85;25714;-88
2022/09/20 06:14:11;;;;;;;17.30;14.87;;;;;;;9.53;83.42;97030.14;1670234;85;25674;-88
2022/09/20 06:17:17;;;;;;;18.85;14.78;;;;;;;9.54;83.39;97028.55;1670124;85;26092;-87
2022/09/20 06:20:13;;;;;;;17.23;15.28;;;;;;;9.56;83.49;97031.86;1670054;85;25969;-88
2022/09/20 06:22:50;;;;;;;15.13;13.48;;;;;;;9.57;83.55;97031.34;1656013;86;27373;-88
2022/09/20 06:25:31;;;;;;;18.15;14.33;;;;;;;9.60;83.41;97034.44;1656052;86;25804;-86
2022/09/20 06:28:20;;;;;;;15.50;13.90;;;;;;;9.61;83.40;97034.75;1656184;86;25826;-89
2022/09/20 06:30:53;;;;;;;17.17;13.70;;;;;;;9.63;83.56;97034.55;1656032;86;26002;-87
2022/09/20 06:33:25;;;;;;;17.92;13.90;;;;;;;9.64;83.47;97033.50;1656011;86;25837;-87
2022/09/20 06:42:12;;;;;;;14.18;12.68;;;;;;;9.68;83.35;97044.97;1616096;88;25815;-90
2022/09/20 06:44:42;;;;;;;15.10;12.10;;;;;;;9.68;83.34;97038.23;1639481;86;26040;-88
2022/09/20 06:47:12;;;;;;;15.85;12.80;;;;;;;9.69;83.25;97039.89;1653273;86;25917;-87
2022/09/20 06:49:45;;;;;;;14.20;12.10;;;;;;;9.69;83.34;97037.71;1653367;85;27477;-84
2022/09/20 06:52:14;;;;;;;14.50;12.15;;;;;;;9.70;83.39;97043.41;1651050;85;25826;-86
2022/09/20 06:54:45;;;;;;;13.13;11.10;;;;;;;9.75;83.45;97041.73;1649383;86;25736;-83
2022/09/20 06:57:18;;;;;;;14.53;12.23;;;;;;;9.80;83.46;97044.30;1648936;86;27012;-85
2022/09/20 06:59:44;;;;;;;13.58;11.22;;;;;;;9.87;83.43;97036.50;1647864;86;25882;-86
2022/09/20 07:02:11;;;;;;;12.10;10.28;;;;;;;9.93;83.40;97040.18;1702174;83;27389;-84
2022/09/20 07:04:38;;;;;;;11.65;9.68;;;;;;;9.99;83.24;97042.03;1668005;85;25739;-87
2022/09/20 07:07:07;;;;;;;13.55;9.90;;;;;;;10.03;83.08;97036.48;1641423;87;25968;-86
2022/09/20 07:09:34;;;;;;;12.78;9.90;;;;;;;10.06;82.89;97038.76;1646186;87;26332;-87
2022/09/20 07:12:01;;;;;;;13.48;9.93;;;;;;;10.09;82.90;97039.68;1646198;86;25941;-87
2022/09/20 07:14:28;;;;;;;12.80;10.80;;;;;;;10.14;82.99;97039.88;1645780;87;27425;-87
2022/09/20 07:16:54;;;;;;;12.33;9.80;;;;;;;10.16;82.96;97047.20;1702438;84;25743;-87
2022/09/20 07:19:22;;;;;;;11.80;9.98;;;;;;;10.17;83.06;97050.20;1704140;84;25777;-85
2022/09/20 07:21:48;;;;;;;11.85;10.48;;;;;;;10.19;82.91;97053.55;1670198;85;26717;-85
2022/09/20 07:24:15;;;;;;;13.78;9.90;;;;;;;10.19;82.73;97052.20;1645492;87;25701;-83
2022/09/20 07:26:59;;;;;;;14.38;10.63;;;;;;;10.23;82.71;97060.17;1646107;86;28058;-85
2022/09/20 07:29:26;;;;;;;12.53;10.18;;;;;;;10.24;82.75;97051.55;1646081;86;25850;-85
2022/09/20 07:31:53;;;;;;;10.55;9.45;;;;;;;10.24;82.84;97065.05;1645978;86;25779;-86
2022/09/20 07:34:19;;;;;;;10.13;9.13;;;;;;;10.25;82.95;97064.83;1645898;87;25980;-85
2022/09/20 07:36:48;;;;;;;9.98;8.53;;;;;;;10.27;82.81;97068.11;1646087;86;25978;-85
2022/09/20 07:39:16;;;;;;;11.08;9.23;;;;;;;10.27;82.72;97070.80;1645947;87;28072;-85
2022/09/20 07:41:49;;;;;;;10.18;9.18;;;;;;;10.28;82.77;97072.46;1645955;87;25800;-86
2022/09/20 07:44:23;;;;;;;10.65;9.55;;;;;;;10.28;82.79;97080.55;1645995;86;25326;-86
2022/09/20 07:46:52;;;;;;;9.28;8.15;;;;;;;10.32;82.79;97083.66;1646141;86;25993;-86
2022/09/20 07:49:20;;;;;;;10.38;9.23;;;;;;;10.36;82.47;97084.36;1645899;86;25901;-86
2022/09/20 07:51:47;;;;;;;9.88;8.88;;;;;;;10.33;82.18;97086.14;1648438;86;27429;-87
2022/09/20 07:54:14;;;;;;;9.93;8.93;;;;;;;10.34;82.21;97089.66;1645103;86;25349;-86
2022/09/20 07:56:42;;;;;;;9.48;8.48;;;;;;;10.38;82.11;97095.77;1641829;87;25759;-88
2022/09/20 07:59:09;;;;;;;10.50;9.40;;;;;;;10.41;82.00;97098.01;1641599;87;26800;-89
2022/09/20 08:01:37;;;;;;;11.70;9.85;;;;;;;10.39;81.84;97092.00;1641576;87;25924;-88
2022/09/20 08:04:06;;;;;;;13.28;9.23;;;;;;;10.39;81.77;97099.27;1614934;86;27100;-86
2022/09/20 08:06:42;;;;;;;12.82;9.75;;;;;;;10.34;81.78;97097.23;1641778;86;25839;-86
2022/09/20 08:09:11;;;;;;;15.63;10.78;;;;;;;10.27;81.87;97103.18;1641957;87;25756;-87
2022/09/20 08:11:41;;;;;;;12.00;10.72;;;;;;;10.25;82.18;97109.34;1641975;86;26053;-86
2022/09/20 08:14:15;;;;;;;17.25;10.60;;;;;;;10.27;82.37;97113.14;1641876;86;25799;-86
2022/09/20 08:16:47;;;;;;;11.97;10.35;;;;;;;10.25;82.23;97112.55;1642131;87;27455;-87
2022/09/20 08:19:20;;;;;;;10.82;9.25;;;;;;;10.20;82.08;97114.54;1642285;87;25910;-88
2022/09/20 08:21:48;;;;;;;13.83;10.53;;;;;;;10.19;82.02;97114.23;1642944;87;25829;-88
2022/09/20 08:24:16;;;;;;;14.23;10.28;;;;;;;10.23;81.91;97115.47;1642094;87;25994;-88
2022/09/20 08:26:43;;;;;;;13.53;10.70;;;;;;;10.21;81.63;97118.89;1641723;87;26108;-90
2022/09/20 08:29:10;;;;;;;13.38;10.88;;;;;;;10.18;81.65;97117.97;1642056;87;27388;-88
2022/09/20 08:31:40;;;;;;;14.35;12.30;;;;;;;10.25;81.67;97126.05;1641689;86;25856;-91
2022/09/20 08:34:10;;;;;;;12.45;10.65;;;;;;;10.30;81.59;97122.98;1641873;87;25828;-92
2022/09/20 08:36:41;;;;;;;11.90;10.45;;;;;;;10.35;81.29;97123.70;1623500;87;26047;-90
2022/09/20 08:39:08;;;;;;;11.97;10.18;;;;;;;10.50;81.52;97115.31;1641617;87;25804;-90
2022/09/20 08:42:14;;;;;;;12.03;9.55;;;;;;;10.66;81.33;97125.56;1641741;87;27395;-89
2022/09/20 08:44:57;;;;;;;10.58;9.35;;;;;;;10.72;80.85;97127.40;1641334;87;25955;-87
2022/09/20 08:47:34;;;;;;;12.95;10.00;;;;;;;10.59;80.78;97122.09;1641648;87;25689;-88
2022/09/20 08:50:07;;;;;;;10.30;9.13;;;;;;;10.63;80.70;97128.69;1641481;87;26035;-88
2022/09/20 08:52:38;;;;;;;12.07;9.83;;;;;;;10.67;80.79;97128.56;1641557;87;26108;-88
2022/09/20 08:55:21;;;;;;;11.60;8.38;;;;;;;10.73;80.59;97131.75;1638405;87;27412;-90
2022/09/20 08:57:57;;;;;;;10.93;8.95;;;;;;;10.73;80.49;97135.80;1643150;87;26494;-86
2022/09/20 09:00:33;;;;;;;11.22;8.00;;;;;;;10.73;80.26;97136.63;1646150;86;25705;-87
2022/09/20 09:03:07;;;;;;;13.03;9.63;;;;;;;10.74;80.20;97142.86;1646106;87;26064;-87
2022/09/20 09:05:39;;;;;;;10.65;8.78;;;;;;;10.73;80.27;97137.98;1645665;87;25824;-88
2022/09/20 09:08:19;;;;;;;12.43;8.80;;;;;;;10.78;80.17;97140.01;1646080;86;27395;-89
2022/09/20 09:11:00;;;;;;;10.25;9.18;;;;;;;10.80;79.85;97141.97;1625886;87;26129;-86
2022/09/20 09:13:54;;;;;;;11.28;10.08;;;;;;;10.79;79.77;97141.14;1646003;87;26495;-89
2022/09/20 09:16:25;;;;;;;10.20;9.13;;;;;;;10.91;80.03;97135.03;1645893;87;26090;-89
2022/09/20 09:18:55;;;;;;;10.03;9.03;;;;;;;11.43;80.57;97128.34;1649711;86;25757;-88
2022/09/20 09:21:25;;;;;;;9.05;8.18;;;;;;;11.89;80.58;97128.68;1646138;87;27402;-87
2022/09/20 09:24:15;;;;;;;10.30;8.55;;;;;;;12.16;79.25;97124.30;1646019;86;25697;-86
2022/09/20 09:26:42;;;;;;;10.35;8.38;;;;;;;12.20;79.15;97127.66;1642912;86;25809;-85
2022/09/20 09:29:22;;;;;;;9.18;8.10;;;;;;;12.23;78.85;97134.50;1646037;86;26062;-84
2022/09/20 09:31:51;;;;;;;9.83;8.73;;;;;;;12.14;78.24;97126.41;1645993;87;26013;-83
2022/09/20 09:34:39;;;;;;;8.48;7.58;;;;;;;12.04;78.38;97129.66;1646017;86;28178;-83
2022/09/20 09:37:08;;;;;;;9.30;8.25;;;;;;;12.12;78.31;97127.98;1645870;87;25805;-84
2022/09/20 09:39:36;;;;;;;10.03;8.48;;;;;;;12.10;78.36;97137.38;1624582;87;25760;-84
2022/09/20 09:42:24;;;;;;;9.70;8.60;;;;;;;12.11;78.63;97130.38;1646147;87;26023;-84
2022/09/20 09:44:51;;;;;;;11.22;8.63;;;;;;;12.48;79.23;97133.84;1646170;87;25707;-87
2022/09/20 09:47:30;;;;;;;9.38;8.40;;;;;;;12.62;78.79;97127.71;1646291;86;27475;-86
2022/09/20 09:49:58;;;;;;;9.58;8.65;;;;;;;12.63;77.96;97122.07;1644144;87;25760;-85
2022/09/20 09:52:31;;;;;;;8.95;7.80;;;;;;;12.42;77.29;97128.53;1647061;85;25804;-86
2022/09/20 09:54:59;;;;;;;9.25;8.18;;;;;;;12.35;77.33;97125.91;1649836;86;25993;-86
2022/09/20 09:57:54;;;;;;;11.12;8.40;;;;;;;12.32;77.44;97131.77;1650488;86;25807;-85
2022/09/20 10:00:22;;;;;;;11.75;9.23;;;;;;;12.35;77.40;97128.61;1649651;86;27544;-85
2022/09/20 10:03:29;;;;;;;11.28;9.30;;;;;;;12.41;77.59;97118.23;1650149;86;25812;-85
2022/09/20 10:06:19;;;;;;;9.38;8.38;;;;;;;12.53;77.62;97124.52;1650400;86;25789;-86
2022/09/20 10:09:22;;;;;;;9.90;8.28;;;;;;;12.67;77.24;97117.55;1650747;86;26541;-83
2022/09/20 10:12:14;;;;;;;11.68;8.60;;;;;;;12.86;76.94;97117.77;1650742;86;26637;-84
2022/09/20 10:15:12;;;;;;;9.10;7.25;;;;;;;13.02;76.08;97114.91;1645376;86;28183;-85
2022/09/20 10:18:01;;;;;;;7.62;6.85;;;;;;;13.11;75.84;97112.97;1650508;86;25753;-85
2022/09/20 10:20:52;;;;;;;6.97;6.28;;;;;;;13.16;74.97;97111.75;1650489;86;25782;-85
2022/09/20 10:23:45;;;;;;;8.08;7.15;;;;;;;13.20;74.68;97115.66;1650241;86;26058;-86
2022/09/20 10:27:02;;;;;;;6.80;6.10;;;;;;;13.29;74.34;97110.17;1618615;86;26094;-89
2022/09/20 10:29:50;;;;;;;6.87;5.92;;;;;;;13.50;74.36;97117.44;1655256;85;27441;-87
2022/09/20 10:32:34;;;;;;;6.60;5.95;;;;;;;13.92;73.99;97110.75;1649882;86;25852;-87
2022/09/20 10:35:24;;;;;;;6.00;5.40;;;;;;;14.20;73.07;97105.08;1649832;86;26312;-91
2022/09/20 10:38:08;;;;;;;5.53;5.03;;;;;;;14.46;73.20;97104.53;1641729;85;26006;-87
2022/09/20 10:44:11;;;;;;;5.35;4.90;;;;;;;15.00;71.78;97092.16;1650737;86;27540;-89
2022/09/20 10:46:51;;;;;;;5.85;4.83;;;;;;;15.20;70.68;97102.56;1650804;86;25326;-87
2022/09/20 10:49:37;;;;;;;7.62;5.03;;;;;;;15.34;70.42;97099.77;1650992;86;25792;-88
2022/09/20 10:52:33;;;;;;;5.72;5.22;;;;;;;15.51;69.86;97102.47;1644740;86;25951;-89
2022/09/20 10:55:11;;;;;;;6.37;5.78;;;;;;;15.38;68.90;97102.28;1620500;88;26346;-88
2022/09/20 10:58:14;;;;;;;5.62;5.08;;;;;;;15.48;69.31;97096.16;1620807;88;27474;-91
2022/09/20 11:00:56;;;;;;;6.78;5.28;;;;;;;15.64;68.39;97099.97;1620237;88;25749;-90
2022/09/20 11:03:53;;;;;;;5.20;4.47;;;;;;;15.75;68.50;97093.05;1627596;88;25801;-91
2022/09/20 11:06:43;;;;;;;5.12;4.08;;;;;;;15.92;67.99;97090.83;1641955;87;26781;-91
2022/09/20 11:09:15;;;;;;;6.85;4.40;;;;;;;16.05;66.91;97089.09;1642031;87;25312;-92
2022/09/20 11:11:47;;;;;;;7.97;5.42;;;;;;;16.20;66.76;97084.63;1641848;87;28231;-93
2022/09/20 11:14:33;;;;;;;5.78;4.80;;;;;;;16.38;66.85;97085.38;1642183;87;25832;-92
2022/09/20 11:17:10;;;;;;;5.15;4.70;;;;;;;16.42;66.16;97086.52;1641757;87;25279;-90
2022/09/20 11:20:02;;;;;;;5.08;4.58;;;;;;;16.34;65.62;97100.58;1640847;87;26974;-87
2022/09/20 11:22:53;;;;;;;2.83;2.62;;;;;;;16.08;65.29;97115.25;1641923;87;26346;-89
2022/09/20 11:25:37;;;;;;;3.15;2.80;;;;;;;15.44;64.14;97121.70;1641255;87;28105;-86
2022/09/20 11:28:25;;;;;;;4.08;3.77;;;;;;;14.84;64.65;97122.06;1641227;87;25749;-84
2022/09/20 11:31:14;;;;;;;3.75;3.42;;;;;;;14.37;65.19;97129.02;1641001;87;25828;-84
2022/09/20 11:33:48;;;;;;;4.92;4.00;;;;;;;13.96;66.18;97132.28;1639475;87;26053;-85
2022/09/20 11:36:20;;;;;;;5.17;4.53;;;;;;;13.84;67.10;97132.02;1640260;87;25991;-85
2022/09/20 11:39:14;;;;;;;7.12;5.30;;;;;;;13.81;67.50;97133.31;1641399;87;27376;-84
2022/09/20 11:41:42;;;;;;;5.12;4.65;;;;;;;13.78;67.83;97136.49;1640827;85;25282;-85
2022/09/20 11:44:16;;;;;;;6.90;5.12;;;;;;;13.75;68.19;97132.92;1623091;86;25764;-86
2022/09/20 11:46:54;;;;;;;6.53;4.95;;;;;;;13.68;68.40;97130.31;1642302;85;26001;-86
2022/09/20 11:49:35;;;;;;;5.85;4.65;;;;;;;13.66;68.73;97130.25;1617090;88;25722;-86
2022/09/20 11:52:25;;;;;;;5.10;4.55;;;;;;;13.63;68.53;97138.36;1610033;86;27414;-86
2022/09/20 11:55:11;;;;;;;5.37;4.83;;;;;;;13.59;68.48;97134.46;1659208;86;25304;-86
2022/09/20 11:57:39;;;;;;;6.37;5.00;;;;;;;13.49;68.79;97132.88;1668196;85;25799;-86
2022/09/20 12:00:08;;;;;;;6.03;5.42;;;;;;;13.46;69.00;97137.94;1665466;86;26072;-85
2022/09/20 12:02:50;;;;;;;7.22;5.12;;;;;;;13.38;69.13;97135.06;1666078;85;25727;-87
2022/09/20 12:05:28;;;;;;;6.25;5.15;;;;;;;13.36;69.18;97142.59;1700561;84;27390;-86
2022/09/20 12:07:57;;;;;;;6.30;5.65;;;;;;;13.26;69.42;97149.14;1698859;83;26427;-87
2022/09/20 12:10:33;;;;;;;7.90;5.28;;;;;;;13.25;69.32;97146.95;1678006;85;26455;-87
2022/09/20 12:13:04;;;;;;;5.65;5.15;;;;;;;13.22;69.15;97143.35;1678019;85;26754;-86
2022/09/20 12:15:39;;;;;;;6.33;5.72;;;;;;;13.07;68.94;97141.59;1677849;85;25734;-85
2022/09/20 12:18:36;;;;;;;6.45;5.85;;;;;;;12.98;69.55;97132.16;1672146;85;27370;-85
2022/09/20 12:21:14;;;;;;;7.62;5.60;;;;;;;12.88;70.01;97136.80;1661085;85;25746;-85
2022/09/20 12:24:00;;;;;;;6.62;6.00;;;;;;;12.86;69.99;97135.37;1649944;85;25768;-86
2022/09/20 12:26:40;;;;;;;7.08;6.37;;;;;;;12.86;70.20;97132.66;1706348;82;26642;-86
2022/09/20 12:29:31;;;;;;;8.10;6.92;;;;;;;12.85;70.45;97133.72;1643835;84;25778;-86
2022/09/20 12:32:04;;;;;;;8.08;7.00;;;;;;;12.78;70.46;97133.00;1710919;82;28405;-84
2022/09/20 12:34:36;;;;;;;;;;;;;;;12.66;70.82;97138.91;1688966;82;25773;-84
2022/09/20 12:37:11;;;;;;;10.10;8.23;;;;;;;12.59;71.50;97139.82;1634419;83;25889;-86
2022/09/20 12:39:39;;;;;;;12.82;9.48;;;;;;;12.59;71.89;97136.28;1705961;82;26011;-85
2022/09/20 12:42:14;;;;;;;11.35;8.18;;;;;;;12.61;72.14;97128.77;1688729;82;25790;-86
2022/09/20 12:45:06;;;;;;;6.58;5.85;;;;;;;12.63;71.98;97129.36;1710366;82;27455;-85
2022/09/20 12:47:36;;;;;;;7.42;6.72;;;;;;;12.66;71.33;97128.91;1706522;82;25820;-85
2022/09/20 12:53:03;;;;;;;7.62;6.90;;;;;;;12.63;71.46;97127.48;1650028;85;26089;-86
2022/09/20 12:55:55;;;;;;;7.72;6.40;;;;;;;12.58;71.50;97127.34;1641556;85;25817;-86
2022/09/20 12:58:32;;;;;;;7.80;6.83;;;;;;;12.52;71.58;97126.92;1641280;85;27411;-85
2022/09/20 13:01:10;;;;;;;8.03;7.22;;;;;;;12.47;71.75;97125.42;1641399;85;25834;-85